createdAt,value
2023-03-26T00:07:47.598Z,997
2023-03-26T00:17:47.558Z,997.1
2023-03-26T00:27:47.537Z,997.1
2023-03-26T00:37:47.510Z,997.1
2023-03-26T00:47:47.478Z,997
2023-03-26T00:57:47.540Z,996.9
2023-03-26T01:07:47.454Z,996.8
2023-03-26T01:17:47.409Z,996.6
2023-03-26T01:27:47.416Z,996.5
2023-03-26T01:37:47.322Z,996.3
2023-03-26T01:47:47.322Z,996.2
2023-03-26T01:57:47.279Z,996.1
2023-03-26T02:07:47.243Z,996
2023-03-26T02:17:47.250Z,995.9
2023-03-26T02:27:47.179Z,995.7
2023-03-26T02:37:47.177Z,995.5
2023-03-26T02:47:47.137Z,995.4
2023-03-26T02:57:47.152Z,995.2
2023-03-26T03:07:47.066Z,995
2023-03-26T03:17:47.049Z,994.9
2023-03-26T03:27:47.019Z,994.9
2023-03-26T03:37:46.983Z,994.7
2023-03-26T03:47:46.966Z,994.6
2023-03-26T03:57:46.935Z,994.5
2023-03-26T04:07:46.906Z,994.3
2023-03-26T04:17:46.869Z,994.1
2023-03-26T04:27:46.848Z,993.9
2023-03-26T04:37:46.832Z,993.8
2023-03-26T04:47:46.788Z,993.5
2023-03-26T04:57:46.766Z,993.4
2023-03-26T05:07:46.798Z,993.3
2023-03-26T05:17:46.706Z,993.2
2023-03-26T05:27:46.693Z,993.1
2023-03-26T05:37:46.659Z,993
2023-03-26T05:47:46.627Z,992.8
2023-03-26T05:57:46.606Z,992.7
2023-03-26T06:07:46.567Z,992.6
2023-03-26T06:17:46.566Z,992.5
2023-03-26T06:27:46.534Z,992.3
2023-03-26T06:37:46.492Z,992.1
2023-03-26T06:47:46.460Z,992
2023-03-26T06:57:46.440Z,992
2023-03-26T07:07:46.418Z,991.8
2023-03-26T07:17:46.405Z,991.6
2023-03-26T07:27:46.342Z,991.6
2023-03-26T07:37:46.352Z,991.5
2023-03-26T07:47:46.304Z,991.4
2023-03-26T07:57:46.310Z,991.3
2023-03-26T08:07:46.330Z,991.2
2023-03-26T08:17:46.225Z,991.1
2023-03-26T08:27:46.253Z,991
2023-03-26T08:37:46.162Z,991
2023-03-26T08:47:46.123Z,991
2023-03-26T08:57:46.111Z,990.9
2023-03-26T09:07:46.087Z,990.9
2023-03-26T09:17:46.048Z,990.8
2023-03-26T09:27:46.070Z,990.7
2023-03-26T09:37:45.990Z,990.5
2023-03-26T09:47:45.971Z,990.4
2023-03-26T09:57:45.941Z,990.2
2023-03-26T10:07:45.910Z,990
2023-03-26T10:17:45.929Z,989.9
2023-03-26T10:27:45.929Z,989.8
2023-03-26T10:37:45.833Z,989.6
2023-03-26T10:47:45.820Z,989.5
2023-03-26T10:57:45.761Z,989.4
2023-03-26T11:07:45.737Z,989.3
2023-03-26T11:17:45.706Z,989.2
2023-03-26T11:27:45.894Z,989.1
2023-03-26T11:37:45.669Z,989
2023-03-26T11:47:45.631Z,988.9
2023-03-26T11:57:45.597Z,988.9
2023-03-26T12:07:45.565Z,989
2023-03-26T12:17:45.534Z,988.9
2023-03-26T12:27:45.518Z,988.9
2023-03-26T12:37:45.512Z,988.9
2023-03-26T12:47:45.460Z,988.9
2023-03-26T12:57:45.573Z,988.9
2023-03-26T13:07:45.488Z,988.9
2023-03-26T13:17:45.365Z,989
2023-03-26T13:27:45.340Z,989
2023-03-26T13:37:45.321Z,989
2023-03-26T13:47:45.365Z,989
2023-03-26T13:57:45.291Z,989.1
2023-03-26T14:07:45.241Z,989.2
2023-03-26T14:17:45.182Z,989.2
2023-03-26T14:27:45.184Z,989.3
2023-03-26T14:37:45.185Z,989.4
2023-03-26T14:47:45.119Z,989.5
2023-03-26T14:57:45.107Z,989.6
2023-03-26T15:07:45.059Z,989.7
2023-03-26T15:17:45.017Z,989.9
2023-03-26T15:27:45.009Z,990
2023-03-26T15:37:44.954Z,990.2
2023-03-26T15:47:44.925Z,990.3
2023-03-26T15:57:44.948Z,990.4
2023-03-26T16:07:44.890Z,990.6
2023-03-26T16:17:44.833Z,990.7
2023-03-26T16:27:44.850Z,990.9
2023-03-26T16:37:44.803Z,991
2023-03-26T16:47:44.756Z,991.2
2023-03-26T16:57:44.760Z,991.4
2023-03-26T17:07:44.719Z,991.6
2023-03-26T17:17:44.668Z,991.8
2023-03-26T17:27:44.643Z,992.1
2023-03-26T17:37:44.602Z,992.3
2023-03-26T17:47:44.595Z,992.5
2023-03-26T17:57:44.557Z,992.7
2023-03-26T18:07:44.528Z,992.9
2023-03-26T18:17:44.586Z,993.2
2023-03-26T18:27:44.488Z,993.5
2023-03-26T18:37:44.438Z,993.7
2023-03-26T18:47:44.413Z,993.9
2023-03-26T18:57:44.410Z,994.1
2023-03-26T19:07:44.364Z,994.3
2023-03-26T19:17:44.333Z,994.5
2023-03-26T19:27:44.304Z,994.7
2023-03-26T19:47:44.356Z,995.1
2023-03-26T19:57:44.488Z,995.3
2023-03-26T20:07:44.386Z,995.4
2023-03-26T20:17:44.382Z,995.7
2023-03-26T20:27:44.294Z,995.8
2023-03-26T20:37:44.204Z,995.9
2023-03-26T20:47:44.157Z,996.2
2023-03-26T20:57:44.066Z,996.4
2023-03-26T21:07:44.098Z,996.6
2023-03-26T21:17:44.078Z,996.7
2023-03-26T21:27:43.978Z,997
2023-03-26T21:37:43.948Z,997.2
2023-03-26T21:47:43.916Z,997.5
2023-03-26T21:57:43.875Z,997.7
2023-03-26T22:07:43.882Z,997.9
2023-03-26T22:17:43.862Z,998.3
2023-03-26T22:27:43.806Z,998.5
2023-03-26T22:37:43.788Z,998.9
2023-03-26T22:47:43.781Z,999.1
2023-03-26T22:57:43.728Z,999.4
2023-03-26T23:07:43.719Z,999.7
2023-03-26T23:17:43.680Z,999.8
2023-03-26T23:27:43.646Z,1000.1
2023-03-26T23:37:43.626Z,1000.3
2023-03-26T23:47:43.598Z,1000.5
2023-03-26T23:57:43.589Z,1000.7
